GLO1147 SBGR-SBCT
Flight info
| Callsign | GLO1147 |
|---|---|
| Flight time | N/A |
| Altitude | 32000 |
| Route | SOVSI UZ85 RAXIT |
| Aircraft | B738/M-SDFGIKRWY/LB1 |
Departure
| Time | N/A |
|---|---|
| Airport | São Paulo/Guarulhos–Governor André Franco Montoro International Airport (SBGR) |
Arrival
| Time | 2026-05-09 00:51 |
|---|---|
| Airport | Curitiba-Afonso Pena International Airport (SBCT) |
| Time | Latitude | Longitude | Altitude | Speed | Heading |
|---|---|---|---|---|---|
| 2026-05-09 00:25 | -24.13400 | -47.49385 | 27942 ft | 420 kts | 219° |
| 2026-05-09 00:25 | -24.15845 | -47.51058 | 27917 ft | 420 kts | 217° |
| 2026-05-09 00:25 | -24.18344 | -47.52727 | 27920 ft | 420 kts | 217° |
| 2026-05-09 00:26 | -24.20834 | -47.54396 | 27925 ft | 420 kts | 217° |
| 2026-05-09 00:26 | -24.23316 | -47.56080 | 27913 ft | 419 kts | 218° |
| 2026-05-09 00:26 | -24.25784 | -47.57774 | 27910 ft | 419 kts | 218° |
| 2026-05-09 00:26 | -24.28248 | -47.59477 | 27924 ft | 418 kts | 217° |
| 2026-05-09 00:27 | -24.29880 | -47.60609 | 27917 ft | 418 kts | 218° |
| 2026-05-09 00:27 | -24.33166 | -47.62891 | 27906 ft | 418 kts | 218° |
| 2026-05-09 00:27 | -24.34798 | -47.64024 | 27890 ft | 418 kts | 218° |
| 2026-05-09 00:27 | -24.37260 | -47.65733 | 27907 ft | 418 kts | 218° |
| 2026-05-09 00:28 | -24.39716 | -47.67440 | 27897 ft | 418 kts | 218° |
| 2026-05-09 00:28 | -24.42167 | -47.69161 | 27915 ft | 417 kts | 220° |
| 2026-05-09 00:28 | -24.44406 | -47.71145 | 27905 ft | 412 kts | 227° |
| 2026-05-09 00:28 | -24.46499 | -47.73285 | 27897 ft | 411 kts | 229° |
| 2026-05-09 00:29 | -24.48559 | -47.75468 | 27904 ft | 411 kts | 229° |
| 2026-05-09 00:29 | -24.50613 | -47.77649 | 27899 ft | 411 kts | 229° |
| 2026-05-09 00:29 | -24.52681 | -47.79823 | 27901 ft | 412 kts | 229° |
| 2026-05-09 00:29 | -24.54761 | -47.81986 | 27901 ft | 412 kts | 228° |
| 2026-05-09 00:30 | -24.56833 | -47.84124 | 27905 ft | 413 kts | 228° |
| 2026-05-09 00:30 | -24.58930 | -47.86277 | 27908 ft | 413 kts | 228° |
| 2026-05-09 00:30 | -24.61036 | -47.88434 | 27908 ft | 413 kts | 228° |
| 2026-05-09 00:30 | -24.63138 | -47.90584 | 27905 ft | 412 kts | 228° |
| 2026-05-09 00:31 | -24.65212 | -47.92703 | 27722 ft | 404 kts | 228° |
| 2026-05-09 00:31 | -24.67252 | -47.94788 | 27405 ft | 397 kts | 228° |
| 2026-05-09 00:31 | -24.69266 | -47.96851 | 26954 ft | 394 kts | 229° |
| 2026-05-09 00:31 | -24.71254 | -47.98889 | 26601 ft | 388 kts | 229° |
| 2026-05-09 00:32 | -24.73219 | -48.00905 | 26195 ft | 384 kts | 229° |
| 2026-05-09 00:32 | -24.75168 | -48.02906 | 25776 ft | 383 kts | 229° |
| 2026-05-09 00:32 | -24.77109 | -48.04901 | 25329 ft | 381 kts | 229° |
| 2026-05-09 00:32 | -24.79045 | -48.06892 | 24872 ft | 380 kts | 229° |
| 2026-05-09 00:33 | -24.80979 | -48.08881 | 24433 ft | 379 kts | 229° |
| 2026-05-09 00:33 | -24.82905 | -48.10864 | 24001 ft | 380 kts | 229° |
| 2026-05-09 00:33 | -24.84842 | -48.12853 | 23547 ft | 382 kts | 229° |
| 2026-05-09 00:33 | -24.86781 | -48.14846 | 23004 ft | 381 kts | 229° |
| 2026-05-09 00:34 | -24.88708 | -48.16833 | 22552 ft | 377 kts | 229° |
| 2026-05-09 00:34 | -24.90620 | -48.18795 | 22094 ft | 374 kts | 229° |
| 2026-05-09 00:34 | -24.92460 | -48.20786 | 21654 ft | 367 kts | 231° |
| 2026-05-09 00:34 | -24.94322 | -48.22715 | 21257 ft | 367 kts | 228° |
| 2026-05-09 00:35 | -24.96201 | -48.24596 | 20824 ft | 364 kts | 229° |
| 2026-05-09 00:35 | -24.98061 | -48.26485 | 20393 ft | 362 kts | 229° |
| 2026-05-09 00:35 | -24.99911 | -48.28384 | 19872 ft | 363 kts | 229° |
| 2026-05-09 00:35 | -25.01756 | -48.30287 | 19433 ft | 362 kts | 229° |
| 2026-05-09 00:36 | -25.03586 | -48.32177 | 19010 ft | 360 kts | 229° |
| 2026-05-09 00:36 | -25.05388 | -48.34040 | 18594 ft | 359 kts | 229° |
| 2026-05-09 00:36 | -25.07228 | -48.35943 | 18157 ft | 358 kts | 229° |
| 2026-05-09 00:36 | -25.09041 | -48.37817 | 17713 ft | 356 kts | 229° |
| 2026-05-09 00:37 | -25.10824 | -48.39661 | 17286 ft | 355 kts | 230° |
| 2026-05-09 00:37 | -25.12624 | -48.41519 | 16895 ft | 354 kts | 230° |
| 2026-05-09 00:37 | -25.14375 | -48.43417 | 16417 ft | 351 kts | 233° |
| 2026-05-09 00:37 | -25.16011 | -48.45393 | 16025 ft | 347 kts | 235° |
| 2026-05-09 00:38 | -25.17623 | -48.47380 | 15608 ft | 345 kts | 235° |
| 2026-05-09 00:38 | -25.19225 | -48.49334 | 15200 ft | 342 kts | 235° |
| 2026-05-09 00:38 | -25.20831 | -48.51265 | 14799 ft | 340 kts | 234° |
| 2026-05-09 00:38 | -25.22432 | -48.53171 | 14386 ft | 338 kts | 234° |
| 2026-05-09 00:39 | -25.24034 | -48.55073 | 13987 ft | 336 kts | 234° |
| 2026-05-09 00:39 | -25.25628 | -48.56969 | 13489 ft | 338 kts | 234° |
| 2026-05-09 00:39 | -25.27227 | -48.58873 | 13051 ft | 337 kts | 234° |
| 2026-05-09 00:39 | -25.28799 | -48.60745 | 12638 ft | 335 kts | 234° |
| 2026-05-09 00:40 | -25.30379 | -48.62627 | 12220 ft | 330 kts | 235° |
| 2026-05-09 00:40 | -25.31925 | -48.64466 | 11899 ft | 325 kts | 235° |
| 2026-05-09 00:40 | -25.33454 | -48.66290 | 11563 ft | 322 kts | 235° |
| 2026-05-09 00:41 | -25.36490 | -48.69912 | 10812 ft | 320 kts | 235° |
| 2026-05-09 00:41 | -25.37997 | -48.71710 | 10443 ft | 318 kts | 236° |
| 2026-05-09 00:41 | -25.39508 | -48.73464 | 10265 ft | 309 kts | 235° |
| 2026-05-09 00:41 | -25.40925 | -48.75160 | 10129 ft | 292 kts | 237° |
| 2026-05-09 00:42 | -25.42272 | -48.76793 | 10004 ft | 284 kts | 237° |
| 2026-05-09 00:42 | -25.43600 | -48.78393 | 9793 ft | 280 kts | 237° |
| 2026-05-09 00:42 | -25.44917 | -48.79975 | 9515 ft | 279 kts | 236° |
| 2026-05-09 00:42 | -25.46217 | -48.81536 | 9213 ft | 279 kts | 237° |
| 2026-05-09 00:43 | -25.47526 | -48.83102 | 8947 ft | 277 kts | 237° |
| 2026-05-09 00:43 | -25.48833 | -48.84667 | 8653 ft | 276 kts | 237° |
| 2026-05-09 00:43 | -25.50128 | -48.86222 | 8369 ft | 274 kts | 237° |
| 2026-05-09 00:43 | -25.51429 | -48.87753 | 8089 ft | 271 kts | 238° |
| 2026-05-09 00:44 | -25.52707 | -48.89278 | 7845 ft | 269 kts | 238° |
| 2026-05-09 00:44 | -25.53972 | -48.90805 | 7661 ft | 269 kts | 238° |
| 2026-05-09 00:44 | -25.55243 | -48.92323 | 7403 ft | 266 kts | 242° |
| 2026-05-09 00:44 | -25.56359 | -48.93903 | 7239 ft | 261 kts | 239° |
| 2026-05-09 00:45 | -25.57643 | -48.95340 | 7040 ft | 260 kts | 236° |
| 2026-05-09 00:45 | -25.58937 | -48.96736 | 6821 ft | 259 kts | 234° |
| 2026-05-09 00:45 | -25.60238 | -48.98108 | 6578 ft | 256 kts | 234° |
| 2026-05-09 00:45 | -25.61503 | -48.99454 | 6354 ft | 247 kts | 235° |
| 2026-05-09 00:46 | -25.62712 | -49.00725 | 6150 ft | 233 kts | 236° |
| 2026-05-09 00:46 | -25.63818 | -49.01923 | 5930 ft | 215 kts | 241° |
| 2026-05-09 00:46 | -25.64295 | -49.03227 | 5693 ft | 160 kts | 293° |
| 2026-05-09 00:46 | -25.63860 | -49.04226 | 5609 ft | 140 kts | 298° |
| 2026-05-09 00:47 | -25.63473 | -49.05203 | 5536 ft | 138 kts | 306° |
| 2026-05-09 00:47 | -25.62902 | -49.06065 | 5511 ft | 138 kts | 310° |
| 2026-05-09 00:47 | -25.62308 | -49.06903 | 5379 ft | 140 kts | 311° |
| 2026-05-09 00:47 | -25.61672 | -49.07699 | 5221 ft | 136 kts | 313° |
| 2026-05-09 00:48 | -25.61057 | -49.08413 | 5069 ft | 120 kts | 315° |
| 2026-05-09 00:48 | -25.60495 | -49.09046 | 4925 ft | 113 kts | 315° |
| 2026-05-09 00:48 | -25.59952 | -49.09654 | 4803 ft | 108 kts | 315° |
| 2026-05-09 00:48 | -25.59433 | -49.10233 | 4622 ft | 104 kts | 315° |
| 2026-05-09 00:49 | -25.58909 | -49.10793 | 4516 ft | 107 kts | 314° |
| 2026-05-09 00:49 | -25.58368 | -49.11419 | 4373 ft | 119 kts | 312° |
| 2026-05-09 00:49 | -25.57783 | -49.12103 | 4228 ft | 124 kts | 318° |
| 2026-05-09 00:49 | -25.57156 | -49.12775 | 4025 ft | 122 kts | 316° |
| 2026-05-09 00:50 | -25.56568 | -49.13428 | 3865 ft | 123 kts | 315° |
| 2026-05-09 00:50 | -25.55948 | -49.14116 | 3693 ft | 130 kts | 315° |
| 2026-05-09 00:50 | -25.55321 | -49.14819 | 3539 ft | 131 kts | 316° |
| 2026-05-09 00:50 | -25.54657 | -49.15562 | 3375 ft | 141 kts | 315° |
| 2026-05-09 00:51 | -25.53964 | -49.16339 | 3135 ft | 144 kts | 316° |
| 2026-05-09 00:51 | -25.53266 | -49.17107 | 2992 ft | 133 kts | 316° |
| 2026-05-09 00:51 | -25.52742 | -49.17690 | 2987 ft | 76 kts | 314° |
| 2026-05-09 00:51 | -25.52534 | -49.17925 | 2991 ft | 14 kts | 314° |
| 2026-05-09 00:52 | -25.52538 | -49.18002 | 2991 ft | 12 kts | 193° |
| 2026-05-09 00:52 | -25.52609 | -49.18003 | 2990 ft | 10 kts | 179° |
| 2026-05-09 00:52 | -25.52675 | -49.17999 | 2987 ft | 9 kts | 177° |
| 2026-05-09 00:52 | -25.52739 | -49.17996 | 2985 ft | 9 kts | 178° |
| 2026-05-09 00:53 | -25.52802 | -49.17994 | 2984 ft | 9 kts | 178° |
| 2026-05-09 00:53 | -25.52861 | -49.17984 | 2983 ft | 9 kts | 150° |
| 2026-05-09 00:53 | -25.52906 | -49.17942 | 2984 ft | 8 kts | 136° |
| 2026-05-09 00:53 | -25.52947 | -49.17898 | 2984 ft | 8 kts | 136° |
| 2026-05-09 00:54 | -25.52974 | -49.17846 | 2984 ft | 8 kts | 99° |
| 2026-05-09 00:54 | -25.52979 | -49.17787 | 2985 ft | 8 kts | 94° |
| 2026-05-09 00:54 | -25.52979 | -49.17729 | 2985 ft | 7 kts | 91° |
| 2026-05-09 00:54 | -25.52981 | -49.17674 | 2986 ft | 7 kts | 101° |
| 2026-05-09 00:55 | -25.53003 | -49.17627 | 2988 ft | 7 kts | 137° |
| 2026-05-09 00:55 | -25.53037 | -49.17590 | 2989 ft | 7 kts | 134° |
| 2026-05-09 00:55 | -25.53070 | -49.17553 | 2990 ft | 7 kts | 134° |
| 2026-05-09 00:55 | -25.53102 | -49.17516 | 2991 ft | 7 kts | 134° |
| 2026-05-09 00:56 | -25.53133 | -49.17480 | 2991 ft | 6 kts | 134° |
| 2026-05-09 00:56 | -25.53165 | -49.17446 | 2991 ft | 6 kts | 137° |
| 2026-05-09 00:56 | -25.53196 | -49.17413 | 2991 ft | 6 kts | 136° |
| 2026-05-09 00:56 | -25.53225 | -49.17379 | 2992 ft | 6 kts | 133° |
| 2026-05-09 00:57 | -25.53255 | -49.17348 | 2992 ft | 6 kts | 149° |
| 2026-05-09 00:57 | -25.53296 | -49.17349 | 2992 ft | 6 kts | 184° |
| 2026-05-09 00:57 | -25.53336 | -49.17346 | 2992 ft | 6 kts | 165° |
| 2026-05-09 00:57 | -25.53370 | -49.17325 | 2992 ft | 6 kts | 139° |
| 2026-05-09 00:58 | -25.53398 | -49.17295 | 2991 ft | 6 kts | 141° |
| 2026-05-09 00:58 | -25.53428 | -49.17309 | 2992 ft | 5 kts | 232° |
| 2026-05-09 00:58 | -25.53450 | -49.17336 | 2992 ft | 2 kts | 225° |
| 2026-05-09 00:58 | -25.53451 | -49.17337 | 2992 ft | 0 kts | 225° |